Time;durP1;ratioP1;P1;durP2;ratioP2;P2;SDS_P1;SDS_P2;PMS_P1;PMS_P2;Temp;Humidity;BMP_temperature;BMP_pressure;BME280_temperature;BME280_humidity;BME280_pressure;Samples;Min_cycle;Max_cycle;Signal;HPM_P1;HPM_P2
2022/05/21 00:04:49;;;;;;;1.40;0.90;;;;;;;15.65;56.40;100010.59;31351100;28;20059;-80
2022/05/21 00:19:51;;;;;;;5.95;1.02;;;;;;;15.51;57.54;99999.47;31344408;28;20077;-80
2022/05/21 00:35:06;;;;;;;2.10;1.17;;;;;;;15.50;60.76;100008.91;31360835;28;20129;-80
2022/05/21 00:50:11;;;;;;;1.90;1.17;;;;;;;15.25;59.86;99988.03;31292939;28;20499;-80
2022/05/21 01:05:15;;;;;;;3.23;1.07;;;;;;;14.83;62.30;99963.16;31267986;28;20132;-80
2022/05/21 01:20:33;;;;;;;1.97;1.10;;;;;;;14.77;65.39;99943.09;31212716;28;20133;-80
2022/05/21 01:35:36;;;;;;;4.70;1.80;;;;;;;14.78;66.41;99920.03;31241315;28;20105;-79
2022/05/21 01:50:39;;;;;;;5.37;1.77;;;;;;;14.82;71.22;99912.44;31279778;28;20150;-79
2022/05/21 02:05:44;;;;;;;3.70;1.73;;;;;;;14.87;70.87;99882.56;31364691;28;20073;-80
2022/05/21 02:20:51;;;;;;;2.30;1.20;;;;;;;14.87;73.92;99887.28;31374864;28;20499;-80
2022/05/21 02:36:08;;;;;;;6.30;1.60;;;;;;;14.79;75.95;99880.56;31316730;28;20076;-80
2022/05/21 02:51:11;;;;;;;3.40;1.43;;;;;;;14.73;76.52;99855.03;31302839;28;20055;-80
2022/05/21 03:06:14;;;;;;;4.37;1.97;;;;;;;14.66;78.86;99850.63;31220763;28;20060;-80
2022/05/21 03:21:47;;;;;;;2.47;1.67;;;;;;;14.77;81.04;99850.19;31242688;28;20136;-80
2022/05/21 03:36:52;;;;;;;4.53;1.63;;;;;;;15.04;81.04;99863.91;31228707;28;20066;-80
2022/05/21 03:51:53;;;;;;;;;;;;;;;15.34;81.09;99865.00;31258631;28;20126;-81
2022/05/21 04:07:31;;;;;;;4.83;1.90;;;;;;;15.65;79.93;99845.66;31357159;28;19927;-80
2022/05/21 04:23:11;;;;;;;5.20;1.80;;;;;;;16.34;77.24;99828.41;31335530;28;20080;-80
2022/05/21 04:38:37;;;;;;;4.03;1.92;;;;;;;16.95;76.14;99821.53;31379537;28;20053;-80
2022/05/21 04:53:38;;;;;;;9.98;2.13;;;;;;;17.83;72.10;99814.66;31263790;28;20053;-80
2022/05/21 05:08:41;;;;;;;8.63;3.88;;;;;;;18.76;69.64;99821.25;31218377;28;20128;-80
2022/05/21 05:24:01;;;;;;;6.57;3.13;;;;;;;19.74;65.90;99800.03;31237217;28;20109;-80
2022/05/21 05:39:03;;;;;;;6.75;2.40;;;;;;;21.03;60.60;99796.00;31232094;28;20045;-81
2022/05/21 05:54:05;;;;;;;6.05;2.10;;;;;;;21.04;58.05;99772.69;31288368;28;20140;-82
2022/05/21 06:09:08;;;;;;;9.07;2.80;;;;;;;20.94;60.10;99776.94;31360623;28;20388;-80
2022/05/21 06:24:10;;;;;;;5.18;1.75;;;;;;;21.96;57.18;99746.16;31327123;28;20079;-81
2022/05/21 06:39:12;;;;;;;4.20;1.70;;;;;;;22.70;54.34;99732.34;31379685;28;20053;-80
2022/05/21 06:54:15;;;;;;;7.32;2.63;;;;;;;23.08;52.96;99708.53;31366182;28;20136;-82
2022/05/21 07:09:19;;;;;;;4.28;2.47;;;;;;;23.84;50.45;99708.91;31361552;28;20137;-80
2022/05/21 07:24:23;;;;;;;7.68;2.67;;;;;;;23.78;49.74;99695.13;31340543;28;20147;-81
2022/05/21 07:39:25;;;;;;;10.63;3.42;;;;;;;23.89;50.73;99678.34;31329360;28;20053;-85
2022/05/21 07:54:27;;;;;;;3.90;2.20;;;;;;;25.36;47.94;99659.97;31332993;28;20049;-85
2022/05/21 08:09:30;;;;;;;4.38;2.28;;;;;;;25.83;47.61;99659.41;31323010;28;20060;-77
2022/05/21 08:39:51;;;;;;;6.85;2.45;;;;;;;26.78;43.28;99633.13;31322548;28;20053;-76
2022/05/21 08:54:57;;;;;;;3.38;1.80;;;;;;;26.95;44.05;99623.66;31341536;28;20049;-76
2022/05/21 09:10:21;;;;;;;3.30;1.73;;;;;;;26.96;42.88;99625.16;31369854;28;20049;-78
2022/05/21 09:25:26;;;;;;;9.98;2.22;;;;;;;27.72;41.94;99609.78;31352706;28;20047;-77
2022/05/21 09:40:34;;;;;;;7.22;2.72;;;;;;;28.80;38.72;99584.50;31358721;28;20055;-77
2022/05/21 09:55:36;;;;;;;6.40;2.58;;;;;;;29.46;37.66;99557.66;31331815;28;20049;-77
2022/05/21 10:10:59;;;;;;;10.85;2.55;;;;;;;29.21;37.66;99554.69;31381521;28;20059;-76
2022/05/21 10:26:16;;;;;;;12.90;3.60;;;;;;;28.10;37.46;99548.59;31316807;28;20091;-78
2022/05/21 10:41:45;;;;;;;6.45;2.95;;;;;;;28.56;37.07;99540.34;31344236;28;20049;-79
2022/05/21 10:57:00;;;;;;;4.80;2.70;;;;;;;28.70;37.25;99513.72;31338086;28;20049;-80
2022/05/21 11:12:13;;;;;;;5.07;2.13;;;;;;;29.29;38.13;99499.50;31345797;28;20092;-82
2022/05/21 11:27:52;;;;;;;4.18;2.20;;;;;;;28.10;39.82;99486.47;31345147;28;20399;-78
2022/05/21 11:42:55;;;;;;;4.57;2.72;;;;;;;27.64;41.40;99477.94;31361631;28;20075;-81
2022/05/21 11:58:06;;;;;;;7.00;2.83;;;;;;;26.95;42.56;99462.88;31324997;28;20499;-80
2022/05/21 12:13:21;;;;;;;9.27;2.57;;;;;;;27.28;43.00;99455.66;31361416;28;20750;-80
2022/05/21 12:28:31;;;;;;;7.80;3.22;;;;;;;26.93;43.51;99431.28;31349337;28;20308;-81
2022/05/21 12:43:52;;;;;;;7.53;3.35;;;;;;;27.25;40.98;99403.81;31368333;28;20061;-80
2022/05/21 12:59:17;;;;;;;9.20;3.03;;;;;;;26.92;43.68;99399.16;31340259;28;20136;-81
2022/05/21 13:14:47;;;;;;;3.97;2.20;;;;;;;26.99;44.27;99356.69;31363154;28;20080;-77
2022/05/21 13:29:51;;;;;;;13.88;4.03;;;;;;;26.65;44.26;99352.06;31356543;28;20048;-77
2022/05/21 13:44:59;;;;;;;4.65;2.78;;;;;;;26.42;42.99;99318.50;31375078;28;20045;-76
2022/05/21 14:00:08;;;;;;;5.10;2.20;;;;;;;26.32;39.31;99302.84;31379393;28;20065;-79
2022/05/21 14:15:35;;;;;;;4.60;2.05;;;;;;;26.25;37.40;99300.72;31402451;28;20433;-80
2022/05/21 14:30:52;;;;;;;7.53;1.90;;;;;;;26.00;37.64;99294.78;31356814;28;20048;-79
2022/05/21 14:46:00;;;;;;;6.97;1.67;;;;;;;25.78;37.16;99285.72;31360949;28;20055;-79
2022/05/21 15:01:02;;;;;;;5.30;1.88;;;;;;;25.71;36.73;99274.56;31332622;28;20081;-78
2022/05/21 15:16:04;;;;;;;3.83;1.35;;;;;;;25.03;37.55;99241.28;31334940;28;20055;-78
2022/05/21 15:31:07;;;;;;;4.05;1.80;;;;;;;24.71;38.26;99244.22;31354017;28;20045;-78
2022/05/21 15:46:10;;;;;;;2.97;1.80;;;;;;;24.32;39.47;99242.22;31314408;28;20562;-80
2022/05/21 16:01:18;;;;;;;3.83;2.10;;;;;;;24.06;40.96;99220.75;31318926;28;20108;-73
2022/05/21 16:16:21;;;;;;;3.45;1.77;;;;;;;23.74;41.24;99218.03;31325654;28;20140;-75
2022/05/21 16:31:23;;;;;;;5.45;2.85;;;;;;;23.47;41.38;99203.34;31339966;28;20045;-76
2022/05/21 16:46:25;;;;;;;4.43;1.73;;;;;;;23.22;42.92;99205.50;31338261;28;20060;-77
2022/05/21 17:01:30;;;;;;;5.68;1.40;;;;;;;22.76;46.79;99190.81;31360876;28;20107;-77
2022/05/21 17:16:32;;;;;;;7.82;1.58;;;;;;;22.42;49.20;99211.88;31358972;28;20136;-74
2022/05/21 17:31:34;;;;;;;7.67;2.40;;;;;;;22.12;49.06;99217.47;31358597;28;20091;-77
2022/05/21 17:46:38;;;;;;;9.23;1.85;;;;;;;21.85;50.81;99235.81;31328879;28;20056;-79
2022/05/21 18:01:40;;;;;;;6.15;2.03;;;;;;;21.58;51.46;99222.97;31220767;28;20077;-75
2022/05/21 18:32:21;;;;;;;7.78;2.20;;;;;;;20.72;54.29;99193.69;31229574;28;20095;-79
2022/05/21 18:47:23;;;;;;;8.37;1.90;;;;;;;20.37;55.61;99157.75;31240559;28;20060;-78
2022/05/21 19:02:25;;;;;;;10.20;4.15;;;;;;;19.96;57.15;99152.88;31341340;28;20140;-76
2022/05/21 19:17:31;;;;;;;3.58;1.70;;;;;;;19.61;58.90;99138.94;31329025;28;20043;-76
2022/05/21 19:32:34;;;;;;;25.55;6.40;;;;;;;19.28;61.02;99115.69;31303775;28;20048;-77
2022/05/21 19:47:36;;;;;;;35.72;12.63;;;;;;;19.09;62.36;99202.72;31332054;28;20089;-76
2022/05/21 20:02:40;;;;;;;4.55;1.90;;;;;;;18.94;62.93;99178.19;31309662;28;20103;-76
2022/05/21 20:17:42;;;;;;;3.80;1.87;;;;;;;18.86;65.85;99144.19;31309433;28;20049;-75
2022/05/21 20:33:04;;;;;;;16.25;3.65;;;;;;;18.62;71.87;99146.63;31382666;28;20068;-76
2022/05/21 21:03:27;;;;;;;5.45;2.25;;;;;;;18.34;76.63;99132.78;31383487;28;20658;-75
2022/05/21 21:18:29;;;;;;;8.32;2.65;;;;;;;18.50;75.63;99140.31;31367820;28;20045;-76
2022/05/21 21:33:33;;;;;;;9.18;2.50;;;;;;;18.36;75.58;99130.28;31364851;28;20048;-76
2022/05/21 21:48:36;;;;;;;6.93;3.10;;;;;;;18.16;78.74;99160.69;31347850;28;20517;-76
2022/05/21 22:03:38;;;;;;;9.20;3.85;;;;;;;18.12;80.42;99127.22;31347737;28;20114;-75
2022/05/21 22:18:40;;;;;;;9.30;3.80;;;;;;;17.46;96.05;99128.31;31318945;28;20045;-75
2022/05/21 22:33:42;;;;;;;10.73;4.95;;;;;;;17.09;100.00;99112.56;31338273;28;20049;-75
2022/05/21 22:48:47;;;;;;;17.33;7.03;;;;;;;17.07;100.00;99101.34;31330281;28;20088;-75
2022/05/21 23:03:49;;;;;;;10.77;4.28;;;;;;;17.05;100.00;99070.91;31362112;28;20057;-76
2022/05/21 23:18:51;;;;;;;10.77;4.18;;;;;;;16.90;100.00;99073.03;31338133;28;20099;-76
2022/05/21 23:33:53;;;;;;;12.32;7.72;;;;;;;16.59;100.00;99099.13;31338480;28;20055;-76
2022/05/21 23:48:55;;;;;;;32.20;15.77;;;;;;;16.18;100.00;99097.69;31317485;28;20052;-77
